x

Sabine Pass, Tx (srst2) Weather Station

3:00am - Sun 23rd Apr 2017 All times are CDT. -5 hours from GMT.

  • Wind
    13mph, 20mph gusts
  • Air Temp 57°f
  • Sea Pressure 1016.9mb
  • Sabine Pass, Tx
  • Sabine Pass, Tx

More Historic Weather Station data

Upgrade to MSW Pro to gain access to the past 30 days of data for over 8000 Wavebouys and Weather Stations around the globe.

Join Pro

Comparision Forecast

View Surf forecast
   
Sun 04/23 3:00am 13 20 mph 1016.9mb 57f
2:00am 14 17 mph 1017.3mb 58f
1:00am 16 23 mph 1017.4mb 60f
12:00am 22 26 mph 1017.1mb 60f
Sat 04/22 11:00pm 16 21 mph 1016.9mb 61f
10:00pm 16 18 mph 1016.4mb 62f
9:00pm 20 23 mph 1015.5mb 63f
8:00pm 21 25 mph 1014.3mb 66f
7:00pm 16 18 mph 1013.3mb 72f
6:00pm 16 18 mph 1012.4mb 78f
5:00pm 11 15 mph 1012mb 78f
4:00pm 11 15 mph 1012.1mb 77f
3:00pm 13 16 mph 1012.3mb 80f
2:00pm 15 20 mph 1012.8mb 80f
1:00pm 14 17 mph 1013.2mb 78f
12:00pm 16 18 mph 1013.6mb 79f
11:00am 14 17 mph 1013.9mb 78f
10:00am 14 17 mph 1013.1mb 78f
9:00am 15 17 mph 1012.8mb 77f
8:00am 13 16 mph 1012.9mb 76f
7:00am 13 15 mph 1012.4mb 75f
6:00am 15 20 mph 1011.4mb 75f
5:00am 14 17 mph 1011.1mb 75f
4:00am 15 17 mph 1011.1mb 75f
3:00am 17 20 mph 1010.7mb 75f
2:00am 17 22 mph 1010.8mb 75f
1:00am 18 21 mph 1011.6mb 76f
12:00am 13 15 mph 1012.7mb 76f
Fri 04/21 11:00pm 17 22 mph 1011.9mb 76f
10:00pm 17 22 mph 1011.5mb 76f
9:00pm 17 21 mph 1011.6mb 76f
8:00pm 13 17 mph 1011.5mb 76f
7:00pm 13 16 mph 1011.7mb 76f
6:00pm 10 13 mph 1011.8mb 78f
5:00pm 15 18 mph 1011.9mb 78f
4:00pm 15 17 mph 1012.1mb 78f
3:00pm 11 16 mph 1013.1mb 78f
2:00pm 15 18 mph 1013.7mb 78f
1:00pm 14 16 mph 1014.2mb 78f
12:00pm 13 16 mph 1015mb 78f
11:00am 13 17 mph 1015.3mb 77f
10:00am 11 16 mph 1015.2mb 77f
9:00am 15 17 mph 1015.1mb 76f
8:00am 13 16 mph 1015.3mb 75f
7:00am 13 16 mph 1014.9mb 75f
6:00am 13 15 mph 1014.8mb 75f
5:00am 11 14 mph 1015.2mb 75f
4:00am 13 17 mph 1015.1mb 75f
3:00am 13 16 mph 1015.1mb 75f
2:00am 14 17 mph 1015.7mb 75f
1:00am 14 17 mph 1016.4mb 75f
12:00am 15 18 mph 1016.6mb 76f
Thu 04/20 11:00pm 15 16 mph 1016.8mb 76f
10:00pm 11 15 mph 1016.9mb 76f
9:00pm 9 11 mph 1016.5mb 76f
8:00pm 9 11 mph 1016.2mb 76f
7:00pm 8 10 mph 1016.4mb 76f
6:00pm 8
mph
1016.6mb 77f
5:00pm 9 10 mph 1016.7mb 77f
4:00pm 11 14 mph 1016.8mb 78f
3:00pm 9 13 mph 1017.7mb 78f
2:00pm 10 11 mph 1018.4mb 78f
1:00pm 8 10 mph 1018.9mb 78f
12:00pm 11 13 mph 1019.1mb 77f
11:00am 10 11 mph 1019.3mb 77f
10:00am 8 10 mph 1018.9mb 77f
9:00am 10 11 mph 1018.6mb 75f
8:00am 7 10 mph 1018.3mb 75f
7:00am 10 13 mph 1017.9mb 74f
6:00am 8 10 mph 1017.7mb 74f
5:00am 9 10 mph 1017.5mb 74f
4:00am 7 10 mph 1017.5mb 73f
3:00am 10 13 mph 1017.5mb 74f
2:00am 9 11 mph 1018.1mb 74f
1:00am 13 15 mph 1018.6mb 74f
12:00am 13 16 mph 1019mb 74f
Wed 04/19 11:00pm 11 14 mph 1019.1mb 74f
10:00pm 11 14 mph 1019mb 74f
9:00pm 11 16 mph 1018.8mb 74f
8:00pm 11 14 mph 1018.4mb 74f
7:00pm 10 13 mph 1018.4mb 75f
6:00pm 10 14 mph 1018.7mb 76f